Hauptseite
METAR-TAF:

METAR-TAF

Flughäfen :

Bournemouth Airport

Bournemouth, England

Breite: 50-47N, Länge: 001-50W, Höhe: 11 m

Beobachtung

Neuester Wetterbericht von vor 3 Stunden und 3 Minuten, um 22:50 UTC
Wind 2 kt aus Nord/Nordost
Temperatur 14°C
Luftfeuchtigkeit 94%
Luftdruck 1019 hPa
Sichtweite: 6000 m
Durchbrochene Bewölkung in der Höhe von 2400 ft

METAR: EGHH 252250Z 03002KT 6000 BKN024 14/13 Q1019

Zeit: 02:53 (01:53 UTC)


TAF: fehlend

Wetterbeobachtungen und Prognosen von mehr als 4000 Flughäfen (METAR und TAF Bericht).

Die verfügbaren Stationen werden durch gelbe und rote Markierungen auf der Karte dargestellt.

Führen Sie die Maus auf sie, um den Namen der Station zu sehen.

Darauf klicken, um die Beobachtung von Wetterbeobachtungen und Prognosen zu sehen.

Um die Karte zu ändern : klicken Sie auf den grünen Tasten mit einem schwarzen Kreuz Zum Vergrößern, auf den grünen Button mit einem Gedankenstrich zu verkleinern, oder auf die grünen Pfeile für benachbarte Karten.


METAR-TAF: